createdAt,value
2022-08-17T00:01:52.361Z,69.30
2022-08-17T00:04:19.924Z,69.30
2022-08-17T00:06:49.020Z,69.40
2022-08-17T00:09:18.505Z,69.50
2022-08-17T00:12:40.346Z,69.60
2022-08-17T00:14:33.689Z,69.80
2022-08-17T00:17:01.836Z,69.70
2022-08-17T00:19:28.651Z,69.90
2022-08-17T00:22:31.732Z,69.90
2022-08-17T00:24:42.936Z,70.10
2022-08-17T00:27:09.707Z,70.10
2022-08-17T00:29:39.122Z,70.20
2022-08-17T00:33:15.778Z,70.40
2022-08-17T00:34:52.732Z,70.50
2022-08-17T00:37:19.455Z,70.60
2022-08-17T00:39:46.220Z,70.80
2022-08-17T00:42:16.941Z,71.00
2022-08-17T00:44:54.130Z,71.20
2022-08-17T00:47:20.825Z,71.20
2022-08-17T00:49:47.554Z,71.10
2022-08-17T00:52:16.101Z,71.30
2022-08-17T00:54:44.912Z,71.40
2022-08-17T00:57:20.620Z,71.50
2022-08-17T01:00:01.528Z,71.70
2022-08-17T01:02:29.570Z,71.90
2022-08-17T01:05:00.926Z,72.00
2022-08-17T01:07:27.575Z,72.10
2022-08-17T01:09:54.292Z,72.40
2022-08-17T01:12:21.042Z,72.60
2022-08-17T01:14:47.791Z,72.60
2022-08-17T01:17:14.513Z,72.60
2022-08-17T01:19:41.634Z,72.70
2022-08-17T01:22:11.035Z,73.00
2022-08-17T01:24:44.572Z,73.30
2022-08-17T01:27:11.507Z,73.30
2022-08-17T01:29:39.377Z,73.10
2022-08-17T01:32:06.445Z,73.30
2022-08-17T01:34:43.775Z,73.40
2022-08-17T01:37:19.550Z,73.40
2022-08-17T01:39:58.177Z,73.50
2022-08-17T01:42:46.560Z,73.50
2022-08-17T01:45:28.549Z,73.60
2022-08-17T01:47:55.193Z,73.40
2022-08-17T01:50:25.416Z,73.40
2022-08-17T01:52:55.498Z,73.40
2022-08-17T01:55:27.518Z,73.50
2022-08-17T01:57:54.258Z,73.50
2022-08-17T02:00:20.998Z,73.80
2022-08-17T02:02:47.733Z,73.80
2022-08-17T02:05:14.396Z,73.90
2022-08-17T02:07:59.442Z,74.00
2022-08-17T02:10:33.708Z,74.10
2022-08-17T02:13:02.005Z,74.10
2022-08-17T02:15:28.821Z,74.00
2022-08-17T02:17:55.509Z,74.00
2022-08-17T02:20:41.171Z,73.90
2022-08-17T02:23:09.441Z,73.70
2022-08-17T02:25:36.814Z,73.80
2022-08-17T02:28:04.098Z,73.90
2022-08-17T02:30:59.802Z,73.80
2022-08-17T02:33:17.494Z,73.90
2022-08-17T02:35:47.269Z,74.00
2022-08-17T02:38:13.904Z,74.10
2022-08-17T02:40:40.815Z,74.30
2022-08-17T02:43:08.393Z,74.40
2022-08-17T02:45:35.719Z,74.30
2022-08-17T02:48:02.870Z,74.10
2022-08-17T02:50:29.618Z,74.00
2022-08-17T02:53:01.916Z,73.80
2022-08-17T02:55:34.283Z,73.90
2022-08-17T02:58:00.953Z,74.40
2022-08-17T03:00:30.594Z,75.30
2022-08-17T03:02:57.356Z,75.90
2022-08-17T03:05:24.960Z,76.80
2022-08-17T03:07:51.817Z,77.70
2022-08-17T03:10:18.744Z,78.30
2022-08-17T03:12:45.530Z,78.70
2022-08-17T03:15:16.289Z,78.80
2022-08-17T03:17:42.952Z,79.00
2022-08-17T03:20:10.054Z,79.30
2022-08-17T03:22:41.973Z,79.70
2022-08-17T03:25:20.146Z,80.00
2022-08-17T03:27:52.081Z,80.10
2022-08-17T03:30:18.685Z,80.20
2022-08-17T03:32:48.870Z,80.90
2022-08-17T03:35:16.764Z,80.40
2022-08-17T03:37:46.237Z,80.70
2022-08-17T03:40:13.085Z,81.10
2022-08-17T03:42:40.123Z,81.10
2022-08-17T03:45:15.573Z,81.50
2022-08-17T03:47:42.336Z,81.40
2022-08-17T03:50:10.720Z,81.60
2022-08-17T03:52:37.426Z,81.20
2022-08-17T03:55:04.498Z,81.20
2022-08-17T03:57:31.390Z,81.40
2022-08-17T03:59:58.157Z,81.60
2022-08-17T04:02:27.285Z,81.80
2022-08-17T04:04:53.982Z,81.70
2022-08-17T04:07:23.153Z,81.80
2022-08-17T04:09:49.867Z,82.00
2022-08-17T04:12:21.612Z,81.90
2022-08-17T04:14:53.401Z,82.10
2022-08-17T04:17:34.748Z,82.20
2022-08-17T04:20:01.368Z,82.40
2022-08-17T04:22:30.732Z,82.50
2022-08-17T04:25:15.123Z,82.50
2022-08-17T04:27:41.764Z,82.40
2022-08-17T04:30:09.226Z,82.60
2022-08-17T04:33:09.852Z,82.50
2022-08-17T04:35:46.565Z,82.70
2022-08-17T04:38:17.880Z,82.50
2022-08-17T04:40:44.658Z,82.50
2022-08-17T04:43:12.179Z,82.60
2022-08-17T04:45:51.327Z,82.60
2022-08-17T04:48:29.754Z,82.60
2022-08-17T04:51:05.042Z,82.60
2022-08-17T04:53:31.761Z,82.50
2022-08-17T04:55:58.465Z,82.60
2022-08-17T04:58:25.129Z,82.50
2022-08-17T05:00:54.867Z,82.60
2022-08-17T05:03:21.615Z,82.40
2022-08-17T05:05:48.283Z,82.30
2022-08-17T05:08:24.244Z,82.40
2022-08-17T05:10:50.877Z,82.50
2022-08-17T05:13:20.062Z,82.50
2022-08-17T05:15:47.703Z,82.50
2022-08-17T05:18:15.491Z,82.50
2022-08-17T05:20:42.249Z,82.50
2022-08-17T05:23:11.027Z,82.60
2022-08-17T05:25:40.127Z,82.40
2022-08-17T05:28:07.028Z,82.20
2022-08-17T05:30:33.995Z,82.20
2022-08-17T05:33:06.009Z,82.30
2022-08-17T05:35:34.033Z,82.40
2022-08-17T05:38:02.484Z,82.60
2022-08-17T05:40:32.848Z,82.60
2022-08-17T05:43:11.054Z,82.60
2022-08-17T05:45:55.839Z,82.60
2022-08-17T05:48:39.059Z,82.70
2022-08-17T05:51:35.903Z,82.90
2022-08-17T05:54:14.362Z,83.30
2022-08-17T05:56:46.923Z,83.50
2022-08-17T05:59:51.729Z,83.70
2022-08-17T06:02:43.030Z,83.60
2022-08-17T06:05:47.753Z,83.40
2022-08-17T06:08:51.511Z,83.50
2022-08-17T06:11:39.091Z,83.50
2022-08-17T06:14:08.485Z,83.60
2022-08-17T06:16:37.730Z,83.60
2022-08-17T06:19:23.529Z,83.60
2022-08-17T06:21:52.476Z,83.80
2022-08-17T06:24:22.248Z,83.80
2022-08-17T06:26:48.942Z,83.60
2022-08-17T06:29:36.804Z,83.60
2022-08-17T06:32:04.772Z,83.40
2022-08-17T06:34:31.897Z,83.30
2022-08-17T06:37:13.551Z,83.30
2022-08-17T06:40:00.565Z,83.20
2022-08-17T06:43:05.460Z,83.00
2022-08-17T06:45:31.952Z,82.80
2022-08-17T06:48:07.437Z,82.80
2022-08-17T06:50:36.459Z,82.80
2022-08-17T06:53:12.842Z,82.90
2022-08-17T06:55:53.729Z,82.90
2022-08-17T06:58:22.653Z,82.80
2022-08-17T07:00:53.145Z,82.90
2022-08-17T07:03:35.160Z,82.90
2022-08-17T07:06:06.150Z,83.20
2022-08-17T07:08:52.976Z,83.30
2022-08-17T07:11:30.683Z,83.30
2022-08-17T07:14:28.373Z,83.60
2022-08-17T07:16:56.545Z,83.80
2022-08-17T07:19:26.578Z,84.00
2022-08-17T07:22:15.703Z,84.00
2022-08-17T07:24:58.266Z,83.90
2022-08-17T07:27:44.797Z,83.80
2022-08-17T07:30:24.792Z,83.90
2022-08-17T07:32:52.224Z,84.00
2022-08-17T07:35:40.848Z,84.20
2022-08-17T07:38:25.787Z,84.40
2022-08-17T07:40:56.514Z,84.50
2022-08-17T07:43:39.397Z,84.40
2022-08-17T07:46:32.805Z,84.50
2022-08-17T07:49:02.535Z,84.40
2022-08-17T07:51:37.397Z,84.60
2022-08-17T07:54:21.760Z,84.70
2022-08-17T07:56:59.891Z,84.80
2022-08-17T07:59:34.154Z,84.70
2022-08-17T08:02:00.943Z,84.90
2022-08-17T08:04:58.853Z,84.90
2022-08-17T08:07:31.074Z,84.90
2022-08-17T08:10:06.331Z,85.00
2022-08-17T08:12:40.733Z,85.10
2022-08-17T08:15:18.381Z,84.80
2022-08-17T08:17:53.625Z,84.50
2022-08-17T08:20:53.252Z,84.40
2022-08-17T08:23:37.266Z,84.20
2022-08-17T08:26:38.044Z,83.70
2022-08-17T08:29:17.777Z,83.20
2022-08-17T08:31:56.429Z,83.50
2022-08-17T08:34:53.367Z,83.50
2022-08-17T08:37:39.118Z,83.50
2022-08-17T08:40:50.152Z,83.40
2022-08-17T08:43:27.914Z,83.20
2022-08-17T08:46:09.565Z,83.20
2022-08-17T08:48:58.044Z,83.30
2022-08-17T08:51:51.607Z,83.30
2022-08-17T08:54:27.358Z,83.10
2022-08-17T08:57:24.170Z,82.80
2022-08-17T09:00:08.064Z,82.70
2022-08-17T09:02:53.708Z,82.50
2022-08-17T09:05:44.621Z,82.50
2022-08-17T09:08:52.550Z,81.90
2022-08-17T09:11:19.250Z,81.60
2022-08-17T09:13:54.393Z,81.70
2022-08-17T09:16:41.866Z,81.60
2022-08-17T09:19:42.575Z,81.50
2022-08-17T09:22:13.739Z,81.30
2022-08-17T09:24:49.201Z,81.20
2022-08-17T09:27:17.912Z,81.10
2022-08-17T09:29:54.122Z,81.00
2022-08-17T09:32:43.937Z,80.50
2022-08-17T09:35:19.955Z,80.50
2022-08-17T09:38:20.073Z,80.40
2022-08-17T09:41:12.771Z,80.50
2022-08-17T09:44:05.335Z,80.40
2022-08-17T09:46:38.794Z,80.20
2022-08-17T09:49:12.773Z,80.20
2022-08-17T09:51:48.823Z,80.10
2022-08-17T09:54:38.479Z,80.40
2022-08-17T09:57:28.535Z,80.50
2022-08-17T10:00:04.870Z,80.80
2022-08-17T10:02:46.777Z,80.80
2022-08-17T10:05:18.036Z,80.70
2022-08-17T10:07:57.638Z,80.50
2022-08-17T10:10:42.018Z,80.70
2022-08-17T10:13:36.759Z,80.90
2022-08-17T10:16:06.337Z,81.30
2022-08-17T10:18:51.271Z,81.50
2022-08-17T10:21:18.158Z,81.90
2022-08-17T10:23:45.100Z,82.00
2022-08-17T10:26:15.015Z,81.90
2022-08-17T10:28:41.624Z,82.20
2022-08-17T10:33:56.028Z,82.40
2022-08-17T10:36:54.630Z,82.60
2022-08-17T10:39:24.297Z,83.00
2022-08-17T10:41:52.873Z,83.30
2022-08-17T10:44:49.041Z,83.30
2022-08-17T10:47:16.866Z,83.60
2022-08-17T10:49:48.297Z,83.90
2022-08-17T10:52:20.825Z,84.20
2022-08-17T10:55:08.539Z,84.10
2022-08-17T10:57:46.152Z,84.10
2022-08-17T11:00:18.812Z,84.30
2022-08-17T11:02:52.694Z,84.60
2022-08-17T11:05:51.504Z,84.50
2022-08-17T11:09:06.523Z,84.60
2022-08-17T11:11:41.913Z,84.60
2022-08-17T11:14:21.385Z,84.70
2022-08-17T11:17:01.923Z,84.70
2022-08-17T11:19:38.897Z,85.00
2022-08-17T11:22:15.623Z,85.20
2022-08-17T11:24:45.917Z,85.20
2022-08-17T11:27:31.800Z,85.10
2022-08-17T11:30:03.039Z,85.00
2022-08-17T11:32:38.601Z,85.40
2022-08-17T11:35:20.727Z,85.30
2022-08-17T11:37:56.117Z,85.20
2022-08-17T11:40:40.255Z,85.20
2022-08-17T11:43:34.324Z,85.20
2022-08-17T11:46:00.924Z,84.90
2022-08-17T11:48:50.744Z,84.90
2022-08-17T11:51:38.767Z,84.60
2022-08-17T11:54:34.875Z,83.90
2022-08-17T11:57:39.911Z,83.10
2022-08-17T12:00:07.439Z,82.70
2022-08-17T12:02:36.087Z,82.60
2022-08-17T12:05:13.032Z,82.70
2022-08-17T12:07:52.617Z,82.40
2022-08-17T12:10:20.739Z,82.20
2022-08-17T12:12:47.877Z,82.10
2022-08-17T12:15:21.542Z,82.30
2022-08-17T12:17:55.467Z,82.10
2022-08-17T12:20:27.990Z,81.40
2022-08-17T12:23:06.765Z,81.50
2022-08-17T12:25:47.877Z,81.50
2022-08-17T12:28:31.645Z,81.30
2022-08-17T12:31:28.951Z,81.00
2022-08-17T12:33:55.912Z,81.10
2022-08-17T12:36:24.162Z,81.20
2022-08-17T12:38:55.233Z,81.10
2022-08-17T12:41:38.648Z,81.40
2022-08-17T12:44:17.664Z,81.60
2022-08-17T12:47:10.131Z,81.40
2022-08-17T12:49:38.309Z,80.80
2022-08-17T12:52:12.482Z,80.60
2022-08-17T12:55:08.715Z,80.20
2022-08-17T12:57:38.220Z,80.00
2022-08-17T13:00:10.156Z,80.00
2022-08-17T13:02:41.739Z,80.10
2022-08-17T13:05:20.260Z,79.80
2022-08-17T13:07:48.627Z,79.40
2022-08-17T13:10:21.135Z,79.50
2022-08-17T13:12:47.982Z,79.40
2022-08-17T13:15:21.023Z,79.40
2022-08-17T13:18:00.722Z,78.90
2022-08-17T13:20:27.405Z,78.80
2022-08-17T13:22:58.101Z,78.80
2022-08-17T13:25:25.593Z,78.30
2022-08-17T13:27:52.825Z,78.10
2022-08-17T13:30:28.632Z,77.90
2022-08-17T13:32:56.042Z,78.10
2022-08-17T13:35:39.058Z,78.40
2022-08-17T13:38:07.965Z,78.10
2022-08-17T13:40:49.650Z,78.10
2022-08-17T13:43:39.052Z,77.80
2022-08-17T13:46:10.522Z,77.20
2022-08-17T13:48:37.205Z,76.90
2022-08-17T13:51:15.525Z,76.70
2022-08-17T13:53:42.153Z,76.10
2022-08-17T13:56:37.865Z,76.10
2022-08-17T13:59:00.202Z,75.90
2022-08-17T14:01:52.830Z,75.80
2022-08-17T14:04:25.067Z,75.60
2022-08-17T14:07:02.006Z,75.70
2022-08-17T14:09:37.261Z,75.80
2022-08-17T14:12:05.326Z,76.10
2022-08-17T14:14:32.010Z,76.10
2022-08-17T14:16:58.825Z,76.10
2022-08-17T14:19:25.752Z,75.90
2022-08-17T14:21:52.697Z,75.80
2022-08-17T14:24:30.718Z,75.70
2022-08-17T14:26:58.106Z,75.60
2022-08-17T14:29:26.110Z,75.50
2022-08-17T14:31:54.231Z,75.30
2022-08-17T14:34:22.277Z,75.80
2022-08-17T14:36:48.999Z,75.80
2022-08-17T14:39:15.950Z,75.90
2022-08-17T14:41:42.821Z,76.50
2022-08-17T14:44:09.553Z,76.50
2022-08-17T14:46:36.283Z,76.90
2022-08-17T14:49:03.005Z,77.10
2022-08-17T14:51:30.114Z,77.50
2022-08-17T14:53:56.797Z,78.10
2022-08-17T14:56:24.451Z,78.60
2022-08-17T14:58:51.114Z,78.80
2022-08-17T15:01:18.175Z,78.80
2022-08-17T15:03:44.927Z,79.00
2022-08-17T15:06:11.606Z,78.80
2022-08-17T15:08:39.208Z,78.50
2022-08-17T15:11:05.999Z,78.20
2022-08-17T15:13:52.897Z,78.10
2022-08-17T15:16:20.122Z,78.30
2022-08-17T15:18:46.799Z,78.90
2022-08-17T15:21:13.459Z,79.00
2022-08-17T15:23:40.172Z,78.90
2022-08-17T15:26:09.390Z,78.90
2022-08-17T15:28:36.085Z,79.00
2022-08-17T15:31:02.765Z,78.90
2022-08-17T15:33:29.506Z,78.70
2022-08-17T15:36:04.332Z,78.60
2022-08-17T15:38:31.045Z,78.80
2022-08-17T15:40:57.847Z,78.90
2022-08-17T15:43:29.207Z,78.90
2022-08-17T15:46:01.014Z,78.60
2022-08-17T15:48:28.608Z,78.60
2022-08-17T15:50:55.317Z,78.50
2022-08-17T15:53:21.966Z,78.60
2022-08-17T15:55:48.654Z,78.70
2022-08-17T15:58:19.263Z,78.60
2022-08-17T16:00:49.926Z,78.40
2022-08-17T16:03:59.335Z,78.60
2022-08-17T16:06:07.097Z,78.70
2022-08-17T16:08:35.991Z,78.40
2022-08-17T16:11:02.711Z,78.30
2022-08-17T16:13:29.673Z,78.40
2022-08-17T16:15:57.528Z,78.50
2022-08-17T16:18:26.117Z,78.80
2022-08-17T16:20:52.847Z,78.70
2022-08-17T16:23:20.285Z,78.50
2022-08-17T16:25:53.249Z,78.50
2022-08-17T16:28:20.670Z,78.40
2022-08-17T16:30:47.332Z,78.20
2022-08-17T16:33:14.006Z,78.10
2022-08-17T16:35:40.665Z,78.10
2022-08-17T16:38:07.500Z,78.30
2022-08-17T16:40:36.026Z,78.60
2022-08-17T16:43:03.658Z,78.90
2022-08-17T16:45:30.717Z,78.80
2022-08-17T16:47:57.358Z,78.80
2022-08-17T16:50:24.224Z,78.60
2022-08-17T16:52:51.173Z,78.70
2022-08-17T16:55:19.602Z,78.80
2022-08-17T16:57:49.944Z,78.70
2022-08-17T17:00:17.765Z,78.70
2022-08-17T17:02:46.695Z,78.90
2022-08-17T17:05:51.401Z,79.20
2022-08-17T17:08:44.413Z,79.70
2022-08-17T17:11:15.425Z,79.80
2022-08-17T17:14:14.620Z,80.40
2022-08-17T17:17:03.191Z,81.40
2022-08-17T17:19:34.529Z,81.50
2022-08-17T17:22:08.736Z,81.40
2022-08-17T17:25:11.925Z,81.70
2022-08-17T17:27:44.704Z,82.20
2022-08-17T17:30:21.963Z,82.30
2022-08-17T17:32:53.482Z,82.60
2022-08-17T17:35:28.527Z,82.50
2022-08-17T17:37:55.208Z,82.80
2022-08-17T17:40:24.196Z,83.00
2022-08-17T17:42:54.479Z,83.20
2022-08-17T17:45:23.975Z,83.50
2022-08-17T17:47:50.870Z,83.80
2022-08-17T17:50:19.295Z,84.40
2022-08-17T17:52:53.606Z,84.10
2022-08-17T17:55:44.425Z,84.20
2022-08-17T17:58:20.019Z,84.40
2022-08-17T18:00:52.654Z,84.50
2022-08-17T18:03:25.138Z,84.50
2022-08-17T18:06:06.728Z,84.70
2022-08-17T18:08:41.623Z,84.90
2022-08-17T18:11:24.970Z,84.90
2022-08-17T18:14:22.443Z,85.00
2022-08-17T18:16:56.731Z,85.10
2022-08-17T18:19:24.028Z,85.20
2022-08-17T18:22:06.883Z,85.20
2022-08-17T18:24:38.506Z,85.30
2022-08-17T18:27:29.200Z,85.30
2022-08-17T18:29:56.882Z,85.20
2022-08-17T18:32:26.829Z,85.30
2022-08-17T18:34:56.688Z,85.50
2022-08-17T18:37:43.350Z,85.40
2022-08-17T18:40:18.996Z,85.50
2022-08-17T18:42:57.109Z,85.40
2022-08-17T18:45:37.669Z,85.80
2022-08-17T18:48:04.986Z,85.30
2022-08-17T18:50:39.074Z,85.30
2022-08-17T18:53:30.320Z,85.50
2022-08-17T18:56:31.210Z,85.60
2022-08-17T18:59:13.061Z,85.60
2022-08-17T19:01:58.198Z,85.60
2022-08-17T19:04:34.627Z,85.70
2022-08-17T19:07:21.129Z,85.80
2022-08-17T19:10:02.329Z,85.90
2022-08-17T19:12:33.566Z,85.90
2022-08-17T19:15:00.301Z,86.00
2022-08-17T19:17:36.322Z,86.10
2022-08-17T19:20:23.354Z,86.20
2022-08-17T19:23:25.731Z,86.30
2022-08-17T19:25:55.184Z,86.40
2022-08-17T19:28:36.734Z,86.50
2022-08-17T19:31:06.828Z,86.60
2022-08-17T19:33:33.473Z,86.80
2022-08-17T19:36:10.201Z,86.80
2022-08-17T19:38:44.614Z,87.00
2022-08-17T19:41:43.327Z,87.10
2022-08-17T19:44:50.403Z,87.20
2022-08-17T19:47:58.574Z,87.10
2022-08-17T19:50:32.724Z,87.00
2022-08-17T19:54:01.532Z,87.00
2022-08-17T19:56:42.170Z,87.10
2022-08-17T19:59:23.503Z,87.10
2022-08-17T20:01:56.897Z,87.30
2022-08-17T20:04:32.878Z,87.30
2022-08-17T20:07:07.694Z,87.50
2022-08-17T20:10:02.264Z,87.60
2022-08-17T20:12:34.184Z,87.60
2022-08-17T20:15:16.434Z,87.70
2022-08-17T20:17:45.059Z,87.70
2022-08-17T20:20:47.016Z,87.80
2022-08-17T20:23:40.278Z,87.70
2022-08-17T20:26:41.322Z,87.70
2022-08-17T20:29:18.540Z,87.70
2022-08-17T20:32:18.872Z,87.70
2022-08-17T20:34:46.751Z,87.70
2022-08-17T20:37:13.418Z,87.70
2022-08-17T20:39:49.156Z,87.80
2022-08-17T20:42:24.738Z,87.80
2022-08-17T20:44:58.888Z,87.90
2022-08-17T20:47:50.439Z,87.60
2022-08-17T20:50:36.209Z,87.70
2022-08-17T20:53:07.412Z,87.80
2022-08-17T20:55:34.057Z,87.80
2022-08-17T20:58:30.860Z,87.90
2022-08-17T21:00:57.985Z,87.90
2022-08-17T21:03:50.390Z,88.00
2022-08-17T21:06:19.960Z,87.90
2022-08-17T21:08:50.942Z,87.80
2022-08-17T21:12:02.627Z,87.90
2022-08-17T21:14:46.732Z,87.70
2022-08-17T21:17:47.756Z,87.60
2022-08-17T21:20:25.206Z,87.60
2022-08-17T21:22:57.847Z,87.70
2022-08-17T21:25:49.265Z,87.80
2022-08-17T21:28:34.148Z,87.90
2022-08-17T21:31:01.238Z,88.00
2022-08-17T21:33:32.552Z,88.10
2022-08-17T21:35:59.259Z,88.10
2022-08-17T21:38:47.811Z,88.00
2022-08-17T21:41:24.726Z,87.90
2022-08-17T21:43:51.483Z,87.90
2022-08-17T21:46:24.138Z,87.90
2022-08-17T21:48:54.440Z,87.90
2022-08-17T21:51:23.843Z,87.90
2022-08-17T21:53:52.278Z,87.90
2022-08-17T21:56:39.643Z,87.90
2022-08-17T21:59:19.456Z,88.00
2022-08-17T22:01:57.085Z,88.00
2022-08-17T22:04:26.621Z,88.00
2022-08-17T22:06:57.538Z,87.90
2022-08-17T22:09:33.995Z,88.10
2022-08-17T22:12:09.407Z,87.80
2022-08-17T22:15:05.188Z,87.90
2022-08-17T22:17:48.974Z,87.80
2022-08-17T22:20:19.451Z,87.80
2022-08-17T22:22:46.081Z,87.70
2022-08-17T22:25:20.049Z,87.70
2022-08-17T22:27:56.718Z,87.80
2022-08-17T22:30:29.175Z,87.70
2022-08-17T22:32:56.303Z,87.70
2022-08-17T22:35:40.085Z,87.60
2022-08-17T22:38:18.650Z,87.50
2022-08-17T22:40:52.733Z,87.50
2022-08-17T22:43:26.019Z,87.40
2022-08-17T22:45:54.450Z,87.50
2022-08-17T22:48:27.535Z,87.60
2022-08-17T22:51:12.599Z,87.70
2022-08-17T22:53:57.610Z,87.90
2022-08-17T22:56:24.723Z,88.10
2022-08-17T22:58:59.236Z,88.30
2022-08-17T23:01:31.255Z,88.50
2022-08-17T23:03:59.926Z,88.50
2022-08-17T23:06:26.818Z,88.50
2022-08-17T23:08:54.164Z,88.50
2022-08-17T23:11:22.728Z,88.50
2022-08-17T23:14:09.266Z,88.50
2022-08-17T23:16:35.923Z,88.50
2022-08-17T23:19:02.566Z,88.30
2022-08-17T23:21:29.247Z,88.20
2022-08-17T23:23:55.898Z,88.10
2022-08-17T23:26:22.543Z,88.20
2022-08-17T23:28:49.521Z,88.30
2022-08-17T23:31:17.874Z,88.30
2022-08-17T23:33:44.681Z,88.10
2022-08-17T23:36:11.447Z,88.10
2022-08-17T23:38:38.124Z,88.00
2022-08-17T23:41:07.807Z,87.90
2022-08-17T23:43:34.451Z,87.80
2022-08-17T23:46:01.243Z,87.90
2022-08-17T23:48:36.224Z,87.80
2022-08-17T23:51:14.717Z,87.80
2022-08-17T23:53:44.053Z,87.80
2022-08-17T23:56:11.461Z,87.80
2022-08-17T23:58:42.690Z,88.00
